Time;durP1;ratioP1;P1;durP2;ratioP2;P2;SDS_P1;SDS_P2;PMS_P1;PMS_P2;Temp;Humidity;BMP_temperature;BMP_pressure;BME280_temperature;BME280_humidity;BME280_pressure;Samples;Min_cycle;Max_cycle;Signal;HPM_P1;HPM_P2
2022/08/25 00:00:14;;;;;;;3.67;3.37;;;28.20;42.10;;;;;;5117414;28;20436;-82
2022/08/25 00:02:42;;;;;;;6.93;3.70;;;28.20;42.30;;;;;;5116864;28;20530;-82
2022/08/25 00:05:24;;;;;;;7.63;4.10;;;28.20;42.30;;;;;;5117004;28;20462;-82
2022/08/25 00:07:54;;;;;;;4.00;3.57;;;28.20;42.00;;;;;;5117134;28;20505;-82
2022/08/25 00:10:23;;;;;;;3.50;3.20;;;28.10;42.60;;;;;;5116536;28;20556;-82
2022/08/25 00:12:51;;;;;;;3.73;3.43;;;28.10;42.60;;;;;;5117575;28;20530;-82
2022/08/25 00:15:21;;;;;;;6.63;3.60;;;28.10;42.30;;;;;;5116043;28;20543;-82
2022/08/25 00:17:49;;;;;;;4.07;3.77;;;28.10;42.40;;;;;;5116877;28;20523;-82
2022/08/25 00:20:17;;;;;;;6.57;3.47;;;28.10;42.60;;;;;;5116851;28;20436;-82
2022/08/25 00:22:45;;;;;;;6.27;3.40;;;28.00;42.80;;;;;;5116956;28;20454;-82
2022/08/25 00:25:13;;;;;;;6.70;3.73;;;28.00;42.60;;;;;;5119668;28;20550;-82
2022/08/25 00:27:43;;;;;;;6.27;3.60;;;27.90;42.90;;;;;;5124187;28;20547;-82
2022/08/25 00:30:15;;;;;;;4.97;3.50;;;27.90;43.00;;;;;;5120562;28;20474;-82
2022/08/25 00:32:44;;;;;;;5.20;4.00;;;27.80;43.00;;;;;;5116911;28;20509;-81
2022/08/25 00:35:24;;;;;;;4.73;3.60;;;27.80;43.00;;;;;;5119163;27;20530;-81
2022/08/25 00:37:52;;;;;;;5.37;4.20;;;27.80;43.10;;;;;;5118865;28;20418;-81
2022/08/25 00:40:21;;;;;;;4.33;3.93;;;27.80;43.00;;;;;;5118912;28;20531;-81
2022/08/25 00:42:50;;;;;;;4.83;3.77;;;27.80;43.20;;;;;;5118858;28;20477;-81
2022/08/25 00:45:18;;;;;;;4.40;3.40;;;27.70;43.30;;;;;;5119353;28;20434;-82
2022/08/25 00:47:46;;;;;;;5.90;3.50;;;27.70;43.30;;;;;;5118285;28;20434;-82
2022/08/25 00:50:15;;;;;;;6.40;4.10;;;27.60;43.50;;;;;;5111831;28;20467;-82
2022/08/25 00:52:44;;;;;;;8.23;4.93;;;27.60;43.80;;;;;;5111240;28;20440;-82
2022/08/25 00:55:14;;;;;;;5.90;3.70;;;27.60;43.90;;;;;;5119442;28;20505;-82
2022/08/25 00:57:43;;;;;;;6.03;3.97;;;27.40;44.00;;;;;;5118909;28;20477;-81
2022/08/25 01:00:15;;;;;;;4.37;3.97;;;27.40;44.30;;;;;;5118753;28;20471;-82
2022/08/25 01:02:43;;;;;;;3.57;3.33;;;27.40;43.90;;;;;;5117799;28;20410;-81
2022/08/25 01:05:11;;;;;;;7.73;4.00;;;27.30;44.40;;;;;;5117904;28;20471;-82
2022/08/25 01:07:39;;;;;;;6.00;4.27;;;27.30;44.70;;;;;;5115015;28;20426;-81
2022/08/25 01:10:12;;;;;;;7.10;3.87;;;27.20;44.70;;;;;;5117818;28;20446;-81
2022/08/25 01:12:40;;;;;;;4.57;4.13;;;27.20;44.50;;;;;;5117461;28;20485;-81
2022/08/25 01:15:09;;;;;;;4.53;4.07;;;27.20;44.60;;;;;;5117143;28;20449;-81
2022/08/25 01:17:46;;;;;;;6.73;3.87;;;27.20;44.50;;;;;;5116926;28;20444;-81
2022/08/25 01:20:14;;;;;;;4.10;3.77;;;27.20;44.70;;;;;;5118220;28;20522;-82
2022/08/25 01:22:44;;;;;;;5.13;4.40;;;27.30;44.60;;;;;;5117924;28;20523;-81
2022/08/25 01:25:25;;;;;;;5.40;4.20;;;27.20;44.70;;;;;;5112378;28;20486;-81
2022/08/25 01:27:53;;;;;;;4.37;4.07;;;27.20;44.50;;;;;;5095599;28;20476;-81
2022/08/25 01:30:21;;;;;;;4.63;4.23;;;27.20;44.40;;;;;;5095152;28;20447;-81
2022/08/25 01:32:49;;;;;;;13.20;4.33;;;27.20;44.80;;;;;;5095689;28;20483;-81
2022/08/25 01:35:17;;;;;;;4.33;3.87;;;27.20;44.90;;;;;;5095170;28;20495;-81
2022/08/25 01:37:47;;;;;;;5.23;4.50;;;27.10;45.10;;;;;;5096142;28;20445;-81
2022/08/25 01:40:15;;;;;;;4.73;3.87;;;27.10;45.20;;;;;;5102376;28;20820;-80
2022/08/25 01:42:52;;;;;;;4.43;4.03;;;27.00;45.30;;;;;;5106421;28;20445;-80
2022/08/25 01:45:20;;;;;;;4.50;4.13;;;27.00;45.40;;;;;;5115366;28;20521;-80
2022/08/25 01:47:49;;;;;;;6.50;4.33;;;26.90;45.50;;;;;;5114456;28;20478;-80
2022/08/25 01:50:17;;;;;;;5.20;4.27;;;26.90;45.40;;;;;;5110284;28;20486;-80
2022/08/25 01:52:50;;;;;;;6.20;4.40;;;26.90;45.70;;;;;;5109266;28;20450;-80
2022/08/25 01:55:19;;;;;;;8.87;4.70;;;26.80;45.50;;;;;;5112203;28;20465;-80
2022/08/25 01:57:47;;;;;;;6.00;4.70;;;26.90;45.80;;;;;;5115373;28;20480;-80
2022/08/25 02:00:16;;;;;;;4.83;4.43;;;26.80;45.90;;;;;;5119715;28;20449;-80
2022/08/25 02:02:44;;;;;;;6.27;4.53;;;26.80;46.00;;;;;;5119278;28;20833;-80
2022/08/25 02:05:15;;;;;;;5.50;4.20;;;26.80;45.80;;;;;;5118789;28;21004;-80
2022/08/25 02:07:51;;;;;;;8.20;5.10;;;26.80;45.80;;;;;;5118584;28;20474;-80
2022/08/25 02:10:18;;;;;;;5.73;5.10;;;26.80;45.90;;;;;;5118532;28;20543;-80
2022/08/25 02:12:47;;;;;;;6.30;5.70;;;26.80;46.20;;;;;;5118718;28;20398;-80
2022/08/25 02:15:15;;;;;;;6.90;5.53;;;26.80;46.30;;;;;;5113371;28;20563;-80
2022/08/25 02:17:43;;;;;;;9.00;4.73;;;26.70;46.30;;;;;;5109992;28;20414;-79
2022/08/25 02:20:11;;;;;;;6.80;5.23;;;26.70;46.50;;;;;;5118722;28;20441;-80
2022/08/25 02:22:39;;;;;;;9.10;5.10;;;26.60;46.80;;;;;;5119179;28;20519;-81
2022/08/25 02:25:14;;;;;;;7.80;5.20;;;26.60;47.10;;;;;;5117630;28;20464;-80
2022/08/25 02:27:42;;;;;;;5.27;4.80;;;26.60;46.60;;;;;;5117459;28;20444;-80
2022/08/25 02:30:12;;;;;;;10.93;5.33;;;26.60;46.60;;;;;;5116421;28;20502;-80
2022/08/25 02:32:40;;;;;;;11.37;5.50;;;26.50;47.00;;;;;;5117876;27;20526;-80
2022/08/25 02:35:08;;;;;;;7.67;4.93;;;26.50;46.80;;;;;;5118962;27;20554;-80
2022/08/25 02:37:36;;;;;;;6.93;4.90;;;26.50;47.00;;;;;;5118931;28;20450;-80
2022/08/25 02:40:06;;;;;;;11.63;5.70;;;26.30;47.40;;;;;;5118633;28;20442;-80
2022/08/25 02:42:35;;;;;;;11.70;5.53;;;26.30;47.40;;;;;;5118280;28;20444;-80
2022/08/25 02:45:04;;;;;;;8.90;5.87;;;26.40;47.10;;;;;;5117476;28;20446;-81
2022/08/25 02:47:31;;;;;;;8.60;5.20;;;26.30;47.00;;;;;;5117191;28;20436;-80
2022/08/25 02:49:59;;;;;;;8.53;5.53;;;26.40;47.00;;;;;;5111885;28;20485;-80
2022/08/25 02:52:27;;;;;;;6.73;5.50;;;26.20;47.40;;;;;;5117318;28;20948;-80
2022/08/25 02:54:55;;;;;;;8.20;5.30;;;26.20;47.60;;;;;;5117884;28;20445;-80
2022/08/25 02:57:23;;;;;;;6.20;5.60;;;26.10;47.90;;;;;;5117733;28;20516;-81
2022/08/25 02:59:53;;;;;;;8.50;5.57;;;26.10;48.00;;;;;;5117689;28;20530;-81
2022/08/25 03:02:21;;;;;;;9.50;5.47;;;26.00;47.90;;;;;;5117862;28;20440;-81
2022/08/25 03:04:49;;;;;;;12.50;6.00;;;26.00;48.00;;;;;;5117895;28;20524;-81
2022/08/25 03:07:20;;;;;;;5.80;5.30;;;26.10;47.90;;;;;;5116388;28;20479;-81
2022/08/25 03:09:48;;;;;;;11.80;5.87;;;26.00;48.00;;;;;;5107693;28;20421;-80
2022/08/25 03:12:16;;;;;;;9.10;6.70;;;25.90;48.60;;;;;;5116974;28;20510;-80
2022/08/25 03:14:44;;;;;;;22.70;14.30;;;25.80;48.70;;;;;;5117065;28;20434;-80
2022/08/25 03:17:14;;;;;;;16.40;11.67;;;25.90;48.80;;;;;;5116975;28;20422;-80
2022/08/25 03:19:42;;;;;;;9.53;6.10;;;25.90;48.70;;;;;;5116563;28;20527;-81
2022/08/25 03:22:10;;;;;;;12.57;7.07;;;25.80;48.50;;;;;;5117404;28;20467;-81
2022/08/25 03:24:38;;;;;;;10.70;6.90;;;25.90;48.80;;;;;;5108028;28;20507;-81
2022/08/25 03:27:05;;;;;;;11.13;7.00;;;25.80;49.00;;;;;;5119625;27;20419;-80
2022/08/25 03:29:33;;;;;;;12.07;6.87;;;25.80;48.60;;;;;;5118568;28;20424;-80
2022/08/25 03:32:01;;;;;;;11.10;6.40;;;25.80;48.60;;;;;;5117636;28;20475;-81
2022/08/25 03:34:30;;;;;;;9.40;7.60;;;25.80;49.00;;;;;;5116635;28;20452;-80
2022/08/25 03:36:59;;;;;;;10.13;7.30;;;25.80;49.00;;;;;;5117324;28;20474;-81
2022/08/25 03:39:27;;;;;;;11.17;7.27;;;25.80;49.00;;;;;;5115614;28;20422;-80
2022/08/25 03:41:55;;;;;;;12.60;7.63;;;25.70;49.00;;;;;;5124393;28;20455;-80
2022/08/25 03:44:23;;;;;;;9.97;6.70;;;25.70;49.20;;;;;;5116862;28;20468;-80
2022/08/25 03:46:51;;;;;;;10.40;7.07;;;25.60;49.20;;;;;;5116982;28;20414;-80
2022/08/25 03:49:21;;;;;;;9.93;7.43;;;25.60;49.40;;;;;;5116869;28;20482;-80
2022/08/25 03:51:51;;;;;;;14.20;7.30;;;25.60;49.10;;;;;;5117842;28;20559;-80
2022/08/25 03:54:21;;;;;;;10.47;7.07;;;25.70;49.20;;;;;;5117330;28;20438;-80
2022/08/25 03:56:49;;;;;;;14.57;7.50;;;25.60;49.70;;;;;;5115561;28;20491;-80
2022/08/25 03:59:18;;;;;;;12.20;7.40;;;25.50;50.00;;;;;;5116508;28;20485;-80
2022/08/25 04:01:46;;;;;;;10.73;7.50;;;25.50;49.70;;;;;;5117181;28;20502;-80
2022/08/25 04:04:20;;;;;;;11.40;7.03;;;25.50;50.10;;;;;;5116780;28;20463;-80
2022/08/25 04:06:50;;;;;;;10.83;7.80;;;25.50;50.20;;;;;;5116682;28;20429;-80
2022/08/25 04:09:18;;;;;;;14.23;7.60;;;25.50;49.90;;;;;;5116883;28;20430;-80
2022/08/25 04:11:46;;;;;;;10.40;8.13;;;25.50;50.20;;;;;;5116206;28;20542;-81
2022/08/25 04:14:19;;;;;;;12.67;7.90;;;25.50;50.40;;;;;;5115105;28;20517;-80
2022/08/25 04:16:48;;;;;;;10.77;7.70;;;25.50;50.40;;;;;;5115738;28;20440;-81
2022/08/25 04:19:16;;;;;;;11.37;7.10;;;25.40;50.10;;;;;;5116375;28;20510;-80
2022/08/25 04:21:45;;;;;;;12.37;8.00;;;25.40;50.40;;;;;;5115546;28;20489;-80
2022/08/25 04:24:18;;;;;;;27.47;17.80;;;25.40;50.30;;;;;;5115804;28;20438;-80
2022/08/25 04:26:47;;;;;;;17.20;11.40;;;25.40;50.60;;;;;;5115713;28;20476;-80
2022/08/25 04:29:16;;;;;;;18.00;9.07;;;25.40;50.60;;;;;;5114954;28;20527;-80
2022/08/25 04:31:45;;;;;;;13.27;8.57;;;25.50;50.70;;;;;;5114771;28;20427;-81
2022/08/25 04:34:15;;;;;;;12.97;9.07;;;25.40;51.10;;;;;;5115485;28;20486;-81
2022/08/25 04:36:59;;;;;;;11.20;9.13;;;25.50;50.80;;;;;;5116163;28;20474;-81
2022/08/25 04:39:28;;;;;;;18.00;9.63;;;25.40;51.10;;;;;;5114978;28;20514;-81
2022/08/25 04:41:56;;;;;;;11.50;9.63;;;25.40;50.90;;;;;;5115748;28;20418;-80
2022/08/25 04:44:24;;;;;;;19.20;8.60;;;25.40;51.10;;;;;;5115070;28;20427;-81
2022/08/25 04:46:53;;;;;;;15.00;9.33;;;25.50;51.40;;;;;;5114213;28;20422;-81
2022/08/25 04:49:21;;;;;;;11.33;8.27;;;25.50;51.20;;;;;;5115616;28;20472;-80
2022/08/25 04:51:49;;;;;;;10.83;8.43;;;25.40;51.70;;;;;;5115716;28;20455;-82
2022/08/25 04:54:20;;;;;;;10.70;7.57;;;25.50;51.30;;;;;;5115147;28;20464;-82
2022/08/25 04:56:50;;;;;;;12.43;8.63;;;25.50;51.80;;;;;;5114972;28;20422;-79
2022/08/25 04:59:25;;;;;;;13.27;8.80;;;25.40;51.50;;;;;;5113260;28;20463;-80
2022/08/25 05:02:00;;;;;;;14.10;9.30;;;25.40;51.70;;;;;;5115431;28;20415;-80
2022/08/25 05:04:29;;;;;;;9.90;8.83;;;25.40;52.00;;;;;;5114119;28;20486;-80
2022/08/25 05:06:57;;;;;;;13.27;8.53;;;25.40;51.90;;;;;;5115261;28;20419;-80
2022/08/25 05:09:25;;;;;;;10.33;8.93;;;25.50;52.20;;;;;;5115085;28;20535;-80
2022/08/25 05:11:54;;;;;;;10.77;8.70;;;25.40;52.20;;;;;;5115338;28;20448;-80
2022/08/25 05:14:23;;;;;;;10.80;8.60;;;25.30;52.40;;;;;;5114847;28;20468;-81
2022/08/25 05:16:53;;;;;;;16.40;10.27;;;25.30;52.80;;;;;;5116576;28;20426;-81
2022/08/25 05:19:22;;;;;;;13.07;9.03;;;25.40;52.80;;;;;;5116732;28;20415;-81
2022/08/25 05:21:50;;;;;;;12.80;9.10;;;25.40;52.70;;;;;;5116331;28;20430;-81
2022/08/25 05:24:18;;;;;;;12.20;9.03;;;25.40;53.00;;;;;;5117270;28;20542;-81
2022/08/25 05:26:46;;;;;;;12.23;9.17;;;25.40;53.10;;;;;;5116615;28;20446;-81
2022/08/25 05:29:16;;;;;;;10.33;8.80;;;25.40;53.20;;;;;;5115943;28;20531;-80
2022/08/25 05:31:44;;;;;;;14.23;9.00;;;25.40;53.50;;;;;;5115857;28;20502;-81
2022/08/25 05:34:17;;;;;;;14.90;9.73;;;25.40;53.60;;;;;;5119555;28;20475;-82
2022/08/25 05:36:45;;;;;;;13.67;9.47;;;25.50;53.30;;;;;;5120623;28;20455;-81
2022/08/25 05:39:13;;;;;;;14.53;10.37;;;25.40;53.30;;;;;;5117010;28;20430;-80
2022/08/25 05:41:41;;;;;;;16.13;10.10;;;25.50;53.60;;;;;;5118566;28;20524;-81
2022/08/25 05:44:11;;;;;;;11.13;9.80;;;25.50;53.70;;;;;;5118395;28;20459;-80
2022/08/25 05:46:40;;;;;;;18.00;10.53;;;25.50;53.50;;;;;;5118820;28;20908;-82
2022/08/25 05:49:08;;;;;;;11.40;9.77;;;25.50;53.80;;;;;;5117921;28;20453;-81
2022/08/25 05:51:36;;;;;;;15.03;9.20;;;25.50;53.90;;;;;;5118829;28;20523;-80
2022/08/25 05:54:05;;;;;;;18.80;10.90;;;25.60;54.10;;;;;;5109759;28;20551;-81
2022/08/25 05:56:33;;;;;;;16.03;10.07;;;25.60;54.20;;;;;;5118551;28;20439;-81
2022/08/25 05:59:01;;;;;;;18.07;10.63;;;25.60;54.10;;;;;;5118814;28;20443;-81
2022/08/25 06:04:23;;;;;;;16.40;11.93;;;25.80;54.00;;;;;;5118753;28;20547;-81
2022/08/25 06:06:52;;;;;;;16.93;11.97;;;25.80;54.30;;;;;;5118820;28;20475;-81
2022/08/25 06:09:20;;;;;;;20.57;12.30;;;25.80;54.60;;;;;;5116174;28;20461;-80
2022/08/25 06:11:48;;;;;;;16.57;13.70;;;25.90;54.60;;;;;;5118037;28;20435;-81
2022/08/25 06:14:21;;;;;;;23.50;14.13;;;25.90;54.70;;;;;;5118273;28;20450;-81
2022/08/25 06:16:50;;;;;;;16.70;12.00;;;26.00;54.60;;;;;;5121797;28;20486;-81
2022/08/25 06:19:18;;;;;;;21.80;13.60;;;25.90;55.20;;;;;;5120167;28;20440;-80
2022/08/25 06:21:47;;;;;;;17.03;12.10;;;26.00;54.90;;;;;;5116713;28;20509;-80
2022/08/25 06:24:15;;;;;;;17.77;12.37;;;26.10;55.10;;;;;;5117902;28;20564;-81
2022/08/25 06:26:43;;;;;;;17.73;12.23;;;26.20;54.90;;;;;;5111420;28;20833;-81
2022/08/25 06:29:12;;;;;;;16.07;11.70;;;26.10;55.40;;;;;;5117190;28;20411;-80
2022/08/25 06:31:41;;;;;;;23.50;10.67;;;26.20;55.40;;;;;;5117894;28;20447;-80
2022/08/25 06:34:09;;;;;;;19.40;10.80;;;26.20;55.20;;;;;;5117629;28;20476;-81
2022/08/25 06:36:37;;;;;;;17.70;12.00;;;26.40;55.40;;;;;;5117394;28;20939;-81
2022/08/25 06:39:06;;;;;;;20.57;11.40;;;26.50;54.90;;;;;;5117300;28;20428;-80
2022/08/25 06:41:37;;;;;;;22.63;14.87;;;26.50;55.00;;;;;;5115792;28;20475;-80
2022/08/25 06:44:05;;;;;;;26.50;14.27;;;26.60;55.00;;;;;;5115736;28;20833;-81
2022/08/25 06:46:33;;;;;;;20.43;14.27;;;26.50;55.40;;;;;;5117230;28;20431;-81
2022/08/25 06:49:04;;;;;;;18.67;13.90;;;26.70;55.00;;;;;;5117109;28;20453;-81
2022/08/25 06:51:34;;;;;;;20.30;11.63;;;26.70;55.20;;;;;;5116813;28;21180;-81
2022/08/25 06:54:02;;;;;;;15.40;12.10;;;26.70;55.40;;;;;;5110151;27;20496;-80
2022/08/25 06:56:32;;;;;;;23.70;12.60;;;26.90;55.00;;;;;;5119525;28;20482;-83
2022/08/25 06:59:00;;;;;;;14.10;12.07;;;26.90;54.70;;;;;;5107232;28;20427;-80
2022/08/25 07:01:29;;;;;;;22.57;11.43;;;27.00;55.30;;;;;;5116406;28;20444;-80
2022/08/25 07:03:59;;;;;;;18.33;11.33;;;27.10;54.80;;;;;;5117289;28;20410;-80
2022/08/25 07:06:29;;;;;;;12.67;11.37;;;27.20;54.60;;;;;;5115228;28;20531;-79
2022/08/25 07:08:57;;;;;;;16.17;11.00;;;27.20;54.90;;;;;;5114889;28;20417;-79
2022/08/25 07:11:26;;;;;;;12.47;11.17;;;27.30;55.00;;;;;;5114747;28;20443;-79
2022/08/25 07:13:55;;;;;;;15.17;11.10;;;27.30;54.70;;;;;;5113107;28;20472;-79
2022/08/25 07:16:23;;;;;;;10.67;9.57;;;27.30;54.80;;;;;;5114383;28;20440;-79
2022/08/25 07:18:57;;;;;;;13.60;11.77;;;27.40;55.20;;;;;;5114948;28;20394;-79
2022/08/25 07:21:27;;;;;;;13.70;10.40;;;27.50;54.60;;;;;;5115681;28;20440;-79
2022/08/25 07:24:00;;;;;;;19.57;12.60;;;27.60;54.80;;;;;;5115905;28;20486;-80
2022/08/25 07:26:29;;;;;;;15.53;11.33;;;27.70;54.60;;;;;;5116246;28;20417;-80
2022/08/25 07:29:12;;;;;;;21.30;16.10;;;27.70;54.80;;;;;;5115062;28;20401;-79
2022/08/25 07:31:40;;;;;;;16.03;11.60;;;27.80;54.60;;;;;;5105412;28;20565;-79
2022/08/25 07:36:55;;;;;;;19.43;10.90;;;28.10;53.80;;;;;;5108773;28;20527;-80
2022/08/25 07:39:23;;;;;;;14.90;10.67;;;28.20;54.00;;;;;;5115549;28;20421;-79
2022/08/25 07:41:51;;;;;;;11.63;10.40;;;28.30;53.70;;;;;;5115621;28;20531;-80
2022/08/25 07:44:20;;;;;;;15.33;11.43;;;28.40;53.40;;;;;;5115995;28;20463;-79
2022/08/25 07:46:49;;;;;;;17.33;10.83;;;28.50;53.70;;;;;;5114979;28;20448;-79
2022/08/25 07:49:17;;;;;;;13.70;9.80;;;28.60;53.40;;;;;;5112722;28;20455;-79
2022/08/25 07:51:50;;;;;;;16.03;10.07;;;28.60;53.60;;;;;;5114659;28;20440;-80
2022/08/25 07:54:33;;;;;;;15.33;10.00;;;28.70;53.00;;;;;;5114614;28;20526;-80
2022/08/25 07:57:02;;;;;;;20.40;10.70;;;29.00;52.90;;;;;;5114226;28;20429;-79
2022/08/25 07:59:31;;;;;;;12.70;10.63;;;29.00;52.70;;;;;;5115580;28;20422;-80
2022/08/25 08:02:07;;;;;;;17.37;13.03;;;29.10;52.80;;;;;;5116032;27;20540;-80
2022/08/25 08:04:47;;;;;;;14.63;9.63;;;29.30;52.20;;;;;;5114693;28;20468;-81
2022/08/25 08:07:17;;;;;;;10.77;9.70;;;29.40;52.20;;;;;;5117686;28;20460;-80
2022/08/25 08:09:47;;;;;;;17.10;10.60;;;29.50;52.20;;;;;;5118989;28;20820;-79
2022/08/25 08:12:32;;;;;;;14.90;10.00;;;29.60;52.00;;;;;;5118615;28;20443;-80
2022/08/25 08:15:02;;;;;;;9.50;8.50;;;29.70;51.80;;;;;;5116466;28;20484;-81
2022/08/25 08:17:37;;;;;;;14.23;9.80;;;29.90;51.30;;;;;;5115465;28;20443;-80
2022/08/25 08:20:07;;;;;;;13.90;10.27;;;30.00;51.00;;;;;;5108638;28;20475;-80
2022/08/25 08:22:35;;;;;;;11.13;9.60;;;30.10;52.10;;;;;;5114752;28;20448;-80
2022/08/25 08:25:04;;;;;;;16.13;9.93;;;30.20;50.90;;;;;;5115742;28;20460;-80
2022/08/25 08:27:38;;;;;;;11.13;9.90;;;30.30;50.70;;;;;;5115506;28;20496;-80
2022/08/25 08:30:08;;;;;;;14.53;10.13;;;30.50;51.10;;;;;;5115335;28;20507;-80
2022/08/25 08:32:37;;;;;;;16.13;9.40;;;30.50;50.60;;;;;;5115443;28;20474;-81
2022/08/25 08:35:24;;;;;;;10.47;9.40;;;30.50;51.60;;;;;;5114478;28;20475;-79
2022/08/25 08:37:52;;;;;;;13.00;8.40;;;30.40;50.10;;;;;;5110635;28;20455;-79
2022/08/25 08:40:20;;;;;;;11.30;8.50;;;30.40;50.60;;;;;;5113655;28;20475;-80
2022/08/25 08:42:53;;;;;;;9.03;8.13;;;30.60;50.60;;;;;;5113998;28;20462;-79
2022/08/25 08:45:33;;;;;;;12.10;8.60;;;30.70;49.40;;;;;;5113830;28;20552;-79
2022/08/25 08:48:24;;;;;;;10.07;8.20;;;30.90;49.40;;;;;;5114106;28;20448;-79
2022/08/25 08:50:57;;;;;;;27.80;19.87;;;30.90;48.90;;;;;;5115127;28;20492;-80
2022/08/25 08:53:27;;;;;;;30.80;17.70;;;31.00;48.90;;;;;;5112919;28;20514;-80
2022/08/25 08:56:02;;;;;;;13.13;9.30;;;31.10;48.70;;;;;;5106557;28;20489;-81
2022/08/25 08:58:35;;;;;;;16.13;8.73;;;31.30;48.10;;;;;;5109384;28;20447;-78
2022/08/25 09:01:04;;;;;;;14.20;7.70;;;31.80;48.20;;;;;;5102677;28;20494;-78
2022/08/25 09:03:35;;;;;;;21.00;14.27;;;32.40;47.30;;;;;;5113648;28;20511;-79
2022/08/25 09:06:08;;;;;;;18.30;12.27;;;32.90;46.00;;;;;;5105491;28;20466;-79
2022/08/25 09:08:37;;;;;;;12.20;9.80;;;33.30;45.00;;;;;;5114047;28;20535;-79
2022/08/25 09:11:13;;;;;;;8.90;8.07;;;33.60;44.40;;;;;;5112852;28;20497;-79
2022/08/25 09:14:00;;;;;;;12.57;7.90;;;33.90;43.70;;;;;;5106525;28;20445;-79
2022/08/25 09:16:54;;;;;;;9.60;6.97;;;34.10;43.50;;;;;;5113190;28;20823;-79
2022/08/25 09:19:39;;;;;;;7.77;7.13;;;34.40;42.90;;;;;;5114262;28;20470;-79
2022/08/25 09:22:13;;;;;;;9.40;6.60;;;34.60;42.50;;;;;;5098138;28;20447;-79
2022/08/25 09:25:06;;;;;;;7.07;6.50;;;34.80;42.20;;;;;;5114298;28;20444;-79
2022/08/25 09:27:39;;;;;;;7.13;6.43;;;35.00;41.80;;;;;;5113717;28;20452;-79
2022/08/25 09:30:08;;;;;;;6.60;5.70;;;35.20;41.30;;;;;;5111432;28;20452;-79
2022/08/25 09:32:39;;;;;;;9.00;6.37;;;35.40;41.10;;;;;;5107718;28;20449;-79
2022/08/25 09:35:18;;;;;;;7.43;6.60;;;35.50;40.60;;;;;;5114298;28;20581;-78
2022/08/25 09:37:57;;;;;;;9.70;6.17;;;35.70;40.50;;;;;;5115264;28;20451;-79
2022/08/25 09:40:25;;;;;;;8.13;5.60;;;35.90;40.10;;;;;;5113643;28;20463;-79
2022/08/25 09:42:54;;;;;;;6.23;5.63;;;36.00;39.60;;;;;;5113377;28;20493;-80
2022/08/25 09:45:40;;;;;;;9.83;6.93;;;36.20;39.60;;;;;;5114006;28;20458;-78
2022/08/25 09:48:36;;;;;;;9.63;8.27;;;36.40;39.00;;;;;;5114566;28;20439;-79
2022/08/25 09:51:17;;;;;;;11.13;6.57;;;36.50;39.00;;;;;;5113756;28;20435;-78
2022/08/25 09:54:26;;;;;;;10.53;6.27;;;36.50;38.70;;;;;;5084131;28;20435;-79
2022/08/25 09:57:33;;;;;;;7.23;6.17;;;36.60;38.30;;;;;;5113887;28;20443;-79
2022/08/25 10:00:15;;;;;;;9.60;6.43;;;36.70;38.00;;;;;;5111250;28;20452;-80
2022/08/25 10:03:05;;;;;;;8.00;6.00;;;36.90;37.20;;;;;;5104791;28;20467;-79
2022/08/25 10:06:25;;;;;;;6.20;5.57;;;37.00;37.70;;;;;;5108762;28;20509;-79
2022/08/25 10:09:14;;;;;;;7.07;6.40;;;37.20;37.70;;;;;;5113093;28;20435;-79
2022/08/25 10:11:43;;;;;;;6.20;5.60;;;37.20;36.00;;;;;;5123733;28;20871;-79
2022/08/25 10:14:23;;;;;;;7.00;5.87;;;37.20;36.50;;;;;;5116624;28;20467;-79
2022/08/25 10:17:24;;;;;;;6.33;5.83;;;37.30;36.50;;;;;;5114692;28;20452;-79
2022/08/25 10:23:36;;;;;;;8.07;7.03;;;37.60;35.60;;;;;;5118695;28;20468;-79
2022/08/25 10:26:13;;;;;;;7.50;6.80;;;37.70;35.10;;;;;;5118220;27;20471;-79
2022/08/25 10:28:48;;;;;;;8.33;6.20;;;37.90;35.50;;;;;;5119219;28;20536;-79
2022/08/25 10:31:20;;;;;;;10.40;5.90;;;38.10;35.50;;;;;;5118246;28;20688;-79
2022/08/25 10:33:58;;;;;;;8.03;5.20;;;38.20;35.00;;;;;;5111615;28;20463;-80
2022/08/25 10:36:31;;;;;;;6.30;4.80;;;38.20;34.80;;;;;;5118232;28;20459;-80
2022/08/25 10:39:00;;;;;;;5.73;5.23;;;38.20;35.00;;;;;;5118525;28;20540;-80
2022/08/25 10:41:42;;;;;;;5.20;4.83;;;38.30;34.90;;;;;;5117805;28;20493;-79
2022/08/25 10:47:17;;;;;;;12.60;4.70;;;38.40;33.60;;;;;;5098562;28;20429;-79
2022/08/25 10:49:48;;;;;;;4.70;4.30;;;38.50;33.40;;;;;;5099626;28;20444;-79
2022/08/25 10:52:19;;;;;;;7.97;4.80;;;38.60;33.00;;;;;;5116771;28;20428;-79
2022/08/25 10:54:50;;;;;;;7.03;4.47;;;38.80;32.40;;;;;;5100936;28;20539;-79
2022/08/25 10:57:27;;;;;;;5.23;4.63;;;38.60;32.40;;;;;;5119475;28;20439;-80
2022/08/25 11:00:00;;;;;;;6.77;4.87;;;38.60;32.40;;;;;;5119316;28;20458;-79
2022/08/25 11:03:10;;;;;;;7.97;4.87;;;38.70;32.50;;;;;;5120022;28;20436;-79
2022/08/25 11:05:40;;;;;;;13.80;4.77;;;39.00;32.20;;;;;;5118386;28;20456;-79
2022/08/25 11:08:10;;;;;;;6.97;4.53;;;39.00;31.30;;;;;;5114370;28;20448;-79
2022/08/25 11:10:42;;;;;;;5.20;4.80;;;39.00;31.80;;;;;;5117428;28;20448;-79
2022/08/25 11:13:15;;;;;;;4.47;3.87;;;39.20;31.80;;;;;;5118307;28;20985;-79
2022/08/25 11:15:50;;;;;;;9.83;4.53;;;39.30;31.40;;;;;;5115867;28;20475;-79
2022/08/25 11:18:39;;;;;;;6.27;4.80;;;39.30;31.60;;;;;;5116414;28;20511;-78
2022/08/25 11:21:09;;;;;;;4.70;4.40;;;39.40;31.40;;;;;;5115361;28;20440;-78
2022/08/25 11:23:38;;;;;;;6.30;4.37;;;39.60;31.50;;;;;;5106522;28;20440;-78
2022/08/25 11:26:09;;;;;;;4.63;4.33;;;39.60;30.50;;;;;;5115863;28;20516;-78
2022/08/25 11:28:48;;;;;;;5.00;4.23;;;39.60;30.80;;;;;;5116353;28;20442;-78
2022/08/25 11:31:16;;;;;;;4.67;4.10;;;39.70;30.30;;;;;;5114929;28;20452;-78
2022/08/25 11:33:45;;;;;;;4.50;4.07;;;39.80;30.40;;;;;;5115733;28;20482;-78
2022/08/25 11:36:18;;;;;;;8.43;4.03;;;39.90;30.40;;;;;;5115521;28;20459;-78
2022/08/25 11:38:50;;;;;;;4.63;4.33;;;40.00;30.50;;;;;;5114953;28;20451;-78
2022/08/25 11:41:23;;;;;;;4.30;3.90;;;40.20;30.30;;;;;;5112963;28;20960;-78
2022/08/25 11:44:22;;;;;;;3.80;3.50;;;40.30;30.10;;;;;;5114901;28;21015;-78
2022/08/25 11:46:57;;;;;;;4.57;3.53;;;40.40;29.90;;;;;;5111853;28;20475;-79
2022/08/25 11:49:44;;;;;;;8.07;3.90;;;40.40;29.80;;;;;;5115847;28;20434;-78
2022/08/25 11:52:54;;;;;;;4.77;4.33;;;40.30;29.40;;;;;;5113221;28;20451;-78
2022/08/25 11:55:26;;;;;;;3.60;3.37;;;40.10;29.50;;;;;;5096642;28;20462;-78
2022/08/25 11:58:21;;;;;;;8.50;3.50;;;40.10;29.60;;;;;;5112998;28;20454;-79
2022/08/25 12:00:50;;;;;;;4.30;3.70;;;40.20;29.60;;;;;;5114181;28;20551;-79
2022/08/25 12:03:56;;;;;;;6.23;3.90;;;40.20;29.50;;;;;;5116688;28;20443;-78
2022/08/25 12:06:29;;;;;;;4.00;3.67;;;40.20;29.60;;;;;;5083601;28;20440;-81
2022/08/25 12:09:17;;;;;;;4.30;4.00;;;40.30;29.70;;;;;;5117681;28;20497;-78
2022/08/25 12:11:48;;;;;;;7.07;4.60;;;40.10;29.50;;;;;;5116610;28;20465;-81
2022/08/25 12:14:44;;;;;;;5.00;4.70;;;40.10;29.70;;;;;;5114205;28;20464;-81
2022/08/25 12:17:38;;;;;;;6.33;4.47;;;40.20;29.40;;;;;;5105111;28;21068;-82
2022/08/25 12:20:06;;;;;;;4.40;3.80;;;40.30;29.20;;;;;;5117633;28;20465;-82
2022/08/25 12:22:50;;;;;;;15.77;4.27;;;40.50;29.20;;;;;;5118204;28;20459;-81
2022/08/25 12:25:33;;;;;;;4.17;3.60;;;40.30;28.90;;;;;;5116373;28;20538;-81
2022/08/25 12:28:05;;;;;;;3.93;3.60;;;40.10;29.70;;;;;;5115988;28;20526;-81
2022/08/25 12:30:42;;;;;;;7.30;3.90;;;39.90;29.40;;;;;;5116317;28;20461;-82
2022/08/25 12:33:21;;;;;;;10.97;4.07;;;39.90;29.60;;;;;;5117008;28;20442;-81
2022/08/25 12:35:56;;;;;;;9.70;3.73;;;40.00;29.50;;;;;;5116159;28;20455;-81
2022/08/25 12:38:30;;;;;;;4.63;3.33;;;40.30;28.90;;;;;;5117045;28;20440;-82
2022/08/25 12:41:03;;;;;;;3.93;3.73;;;40.30;29.00;;;;;;5117196;28;20918;-82
2022/08/25 12:43:33;;;;;;;4.87;3.63;;;40.30;29.00;;;;;;5119309;28;20440;-81
2022/08/25 12:46:33;;;;;;;5.93;3.50;;;40.40;28.50;;;;;;5111491;28;20467;-81
2022/08/25 12:49:03;;;;;;;4.40;4.00;;;40.30;28.60;;;;;;5114369;28;20493;-81
2022/08/25 12:51:53;;;;;;;3.90;3.70;;;40.20;28.70;;;;;;5120802;28;20448;-80
2022/08/25 12:54:43;;;;;;;4.60;3.80;;;40.20;28.80;;;;;;5116359;28;20460;-82
2022/08/25 12:57:37;;;;;;;6.93;3.80;;;40.30;28.80;;;;;;5118874;28;20463;-81
2022/08/25 13:00:15;;;;;;;4.63;3.67;;;40.20;28.20;;;;;;5124407;28;20440;-81
2022/08/25 13:02:56;;;;;;;4.83;3.43;;;40.00;28.60;;;;;;5111790;28;20496;-80
2022/08/25 13:05:50;;;;;;;4.20;3.43;;;40.00;28.80;;;;;;5104982;28;20536;-81
2022/08/25 13:08:40;;;;;;;3.93;3.60;;;40.10;28.80;;;;;;5116183;28;20482;-81
2022/08/25 13:11:15;;;;;;;4.00;3.60;;;40.20;29.00;;;;;;5115981;28;20535;-81
2022/08/25 13:13:49;;;;;;;4.60;4.00;;;40.30;28.70;;;;;;5116852;28;20446;-81
2022/08/25 13:16:18;;;;;;;4.63;3.77;;;40.30;28.50;;;;;;5117077;28;20493;-81
2022/08/25 13:18:47;;;;;;;6.90;3.23;;;40.00;28.80;;;;;;5115585;28;20941;-80
2022/08/25 13:21:20;;;;;;;3.87;3.53;;;39.80;29.30;;;;;;5097221;28;20510;-80